Time;durP1;ratioP1;P1;durP2;ratioP2;P2;SDS_P1;SDS_P2;PMS_P1;PMS_P2;Temp;Humidity;BMP_temperature;BMP_pressure;BME280_temperature;BME280_humidity;BME280_pressure;Samples;Min_cycle;Max_cycle;Signal;HPM_P1;HPM_P2
2022/07/13 00:01:36;;;;;;;1.70;1.60;;;;;;;20.47;53.26;99504.09;7039499;28;20609;-83
2022/07/13 00:04:58;;;;;;;1.87;1.77;;;;;;;20.44;52.79;99501.84;7040943;28;20232;-83
2022/07/13 00:08:19;;;;;;;1.70;1.60;;;;;;;20.65;52.34;99501.06;7039591;28;20686;-82
2022/07/13 00:11:41;;;;;;;1.90;1.80;;;;;;;20.67;52.32;99487.94;7040557;28;20267;-83
2022/07/13 00:15:03;;;;;;;1.50;1.50;;;;;;;20.99;51.25;99489.75;7043164;28;20225;-82
2022/07/13 00:18:26;;;;;;;1.93;1.73;;;;;;;20.44;52.99;99499.09;7040589;28;20396;-83
2022/07/13 00:21:47;;;;;;;4.30;1.80;;;;;;;20.08;54.20;99502.38;7040304;28;20207;-83
2022/07/13 00:25:09;;;;;;;1.77;1.67;;;;;;;20.61;53.08;99497.16;7040274;28;20229;-82
2022/07/13 00:28:31;;;;;;;1.80;1.70;;;;;;;20.81;52.55;99494.72;7039489;28;20205;-82
2022/07/13 00:31:53;;;;;;;1.73;1.63;;;;;;;21.12;51.30;99494.88;7042376;28;20225;-82
2022/07/13 00:35:17;;;;;;;1.60;1.50;;;;;;;21.04;51.15;99489.00;7060531;28;20233;-80
2022/07/13 00:38:40;;;;;;;1.63;1.60;;;;;;;20.59;52.54;99494.69;7060412;28;20197;-80
2022/07/13 00:42:08;;;;;;;1.53;1.47;;;;;;;20.44;52.74;99479.91;7060668;27;20189;-80
2022/07/13 00:45:42;;;;;;;2.13;1.70;;;;;;;20.45;52.80;99501.59;7060629;28;20250;-80
2022/07/13 00:49:05;;;;;;;2.40;1.60;;;;;;;20.93;51.67;99500.94;7062352;28;20173;-80
2022/07/13 00:52:30;;;;;;;2.40;1.57;;;;;;;21.04;51.08;99495.31;7061842;28;20275;-80
2022/07/13 00:56:01;;;;;;;1.80;1.70;;;;;;;20.47;53.45;99512.31;7062653;28;20237;-78
2022/07/13 00:59:28;;;;;;;1.70;1.60;;;;;;;20.30;53.67;99500.53;7061585;28;20268;-80
2022/07/13 01:02:50;;;;;;;1.97;1.83;;;;;;;20.30;53.64;99493.16;7058581;28;20225;-79
2022/07/13 01:06:18;;;;;;;1.83;1.50;;;;;;;20.82;52.15;99508.16;7060401;28;20207;-78
2022/07/13 01:09:44;;;;;;;2.23;2.00;;;;;;;20.28;53.47;99491.75;7061779;28;20203;-81
2022/07/13 01:17:06;;;;;;;1.80;1.70;;;;;;;20.14;54.24;99483.03;6943244;28;20209;-80
2022/07/13 01:20:29;;;;;;;3.27;1.70;;;;;;;20.40;53.19;99481.53;7061957;28;20211;-80
2022/07/13 01:23:53;;;;;;;3.43;1.80;;;;;;;20.26;53.76;99488.41;7059601;28;20457;-80
2022/07/13 01:27:16;;;;;;;1.70;1.60;;;;;;;19.97;54.68;99478.59;7036331;28;20282;-80
2022/07/13 01:30:37;;;;;;;1.80;1.70;;;;;;;20.01;54.74;99477.88;7034529;28;20254;-81
2022/07/13 01:33:59;;;;;;;1.73;1.63;;;;;;;19.92;54.98;99473.88;7041136;28;20225;-80
2022/07/13 01:37:21;;;;;;;1.93;1.63;;;;;;;20.18;53.76;99462.31;7048736;28;20209;-81
2022/07/13 01:40:44;;;;;;;1.70;1.60;;;;;;;20.34;53.27;99464.16;7039371;28;20230;-81
2022/07/13 01:44:08;;;;;;;1.60;1.50;;;;;;;19.96;54.41;99455.91;7046008;28;20362;-80
2022/07/13 01:47:37;;;;;;;2.27;1.60;;;;;;;20.18;54.11;99467.78;7059039;28;20198;-79
2022/07/13 01:51:02;;;;;;;1.67;1.57;;;;;;;20.28;53.77;99476.13;7058840;28;20231;-80
2022/07/13 01:54:24;;;;;;;1.80;1.70;;;;;;;20.47;52.99;99482.16;7057654;28;20231;-79
2022/07/13 01:57:48;;;;;;;1.70;1.60;;;;;;;19.98;54.67;99481.09;7055249;28;20213;-81
2022/07/13 02:01:10;;;;;;;1.83;1.70;;;;;;;19.58;55.93;99480.41;7058435;28;20213;-81
2022/07/13 02:04:35;;;;;;;1.60;1.50;;;;;;;20.29;53.56;99476.97;7058769;28;20212;-80
2022/07/13 02:07:57;;;;;;;2.07;1.63;;;;;;;20.00;53.35;99429.69;7058712;28;20193;-80
2022/07/13 02:11:24;;;;;;;2.20;1.73;;;;;;;20.07;53.09;99429.53;7057628;28;20224;-80
2022/07/13 02:14:48;;;;;;;2.33;1.70;;;;;;;20.29;53.39;99461.34;7056533;28;20216;-81
2022/07/13 02:18:10;;;;;;;1.60;1.50;;;;;;;20.35;53.17;99460.34;7058936;28;20227;-80
2022/07/13 02:21:52;;;;;;;3.10;1.60;;;;;;;20.65;52.56;99443.50;7055417;28;20209;-79
2022/07/13 02:25:14;;;;;;;2.53;2.07;;;;;;;20.69;52.03;99450.97;7057648;28;20254;-80
2022/07/13 02:28:44;;;;;;;2.00;1.90;;;;;;;20.17;53.62;99424.22;7057260;28;20247;-80
2022/07/13 02:32:11;;;;;;;3.23;1.63;;;;;;;20.58;53.12;99440.13;7059099;28;20232;-79
2022/07/13 02:35:36;;;;;;;1.80;1.70;;;;;;;20.64;51.74;99368.69;7053468;28;20299;-79
2022/07/13 02:38:59;;;;;;;1.87;1.77;;;;;;;21.09;51.57;99426.81;7031091;28;20212;-78
2022/07/13 02:42:21;;;;;;;2.07;1.70;;;;;;;21.05;51.59;99424.84;7025327;28;20204;-81
2022/07/13 02:45:42;;;;;;;2.67;2.07;;;;;;;20.54;51.77;99354.03;7031226;28;20214;-79
2022/07/13 02:49:22;;;;;;;3.23;1.40;;;;;;;20.32;53.44;99400.63;7030660;28;20193;-80
2022/07/13 02:52:44;;;;;;;1.90;1.67;;;;;;;20.44;53.55;99412.28;7026691;28;20235;-80
2022/07/13 02:56:07;;;;;;;2.20;1.60;;;;;;;20.82;52.74;99411.38;7010743;28;20677;-82
2022/07/13 02:59:32;;;;;;;3.03;1.70;;;;;;;20.73;52.34;99410.16;7003511;28;20294;-82
2022/07/13 03:02:53;;;;;;;2.83;1.60;;;;;;;20.88;52.11;99372.81;7005178;28;20255;-82
2022/07/13 03:06:16;;;;;;;1.80;1.70;;;;;;;21.19;51.40;99402.25;7005281;28;20198;-82
2022/07/13 03:09:38;;;;;;;3.63;2.00;;;;;;;20.86;52.19;99410.63;7006774;28;20206;-81
2022/07/13 03:12:59;;;;;;;2.00;1.90;;;;;;;20.81;51.87;99415.22;7008629;28;20278;-81
2022/07/13 03:16:21;;;;;;;2.07;1.83;;;;;;;20.70;52.51;99405.22;7008382;28;20209;-80
2022/07/13 03:19:42;;;;;;;2.23;1.97;;;;;;;20.94;51.83;99412.13;7008806;28;20216;-82
2022/07/13 03:23:05;;;;;;;2.87;1.80;;;;;;;21.01;51.63;99413.56;7008805;28;20256;-82
2022/07/13 03:26:27;;;;;;;2.00;1.90;;;;;;;20.88;52.00;99400.25;7008785;28;20660;-83
2022/07/13 03:29:49;;;;;;;3.00;2.10;;;;;;;20.97;51.69;99389.66;7009066;28;20688;-81
2022/07/13 03:33:10;;;;;;;3.03;1.70;;;;;;;20.89;51.92;99415.63;7013529;28;20222;-82
2022/07/13 03:36:32;;;;;;;2.00;1.90;;;;;;;20.88;52.01;99429.56;7019604;28;20217;-81
2022/07/13 03:39:55;;;;;;;2.27;1.87;;;;;;;20.87;51.95;99419.69;7011297;28;20198;-82
2022/07/13 03:43:16;;;;;;;2.13;1.93;;;;;;;21.10;51.63;99409.28;7009910;28;20248;-82
2022/07/13 03:46:38;;;;;;;1.90;1.80;;;;;;;20.83;51.93;99399.34;7009566;28;20214;-82
2022/07/13 03:49:59;;;;;;;2.93;1.93;;;;;;;20.51;52.97;99414.84;7008800;28;20655;-82
2022/07/13 03:53:21;;;;;;;2.10;2.00;;;;;;;20.06;54.71;99412.28;7007914;28;20237;-82
2022/07/13 03:56:44;;;;;;;1.97;1.87;;;;;;;19.92;55.21;99412.84;7008193;28;20681;-82
2022/07/13 04:00:07;;;;;;;2.00;1.80;;;;;;;20.24;54.34;99413.91;7006244;28;20209;-81
2022/07/13 04:03:28;;;;;;;1.80;1.70;;;;;;;20.56;53.27;99409.41;7007529;28;20321;-82
2022/07/13 04:06:50;;;;;;;2.07;1.87;;;;;;;20.69;52.76;99417.28;7003997;28;20210;-83
2022/07/13 04:10:11;;;;;;;2.50;1.80;;;;;;;20.59;52.63;99417.97;7003980;28;20210;-83
2022/07/13 04:13:34;;;;;;;3.33;2.07;;;;;;;20.65;52.99;99418.84;7004828;28;20223;-82
2022/07/13 04:16:56;;;;;;;2.60;1.80;;;;;;;20.35;53.63;99397.34;7007601;28;20879;-83
2022/07/13 04:20:17;;;;;;;2.10;1.90;;;;;;;20.53;53.06;99397.06;7011085;28;20205;-82
2022/07/13 04:23:39;;;;;;;2.13;1.90;;;;;;;20.21;54.58;99406.19;7012090;28;20226;-81
2022/07/13 04:27:01;;;;;;;2.10;2.00;;;;;;;20.65;52.98;99392.28;7011603;28;20270;-81
2022/07/13 04:30:23;;;;;;;2.00;1.90;;;;;;;20.35;53.05;99380.09;7011720;28;20213;-82
2022/07/13 04:33:45;;;;;;;4.10;1.83;;;;;;;20.77;52.40;99394.88;7013874;28;20250;-82
2022/07/13 04:37:07;;;;;;;1.80;1.70;;;;;;;20.99;51.71;99388.31;7011248;28;20259;-82
2022/07/13 04:40:28;;;;;;;1.77;1.67;;;;;;;20.91;51.75;99380.56;7011150;28;20236;-82
2022/07/13 04:43:50;;;;;;;3.50;1.80;;;;;;;20.77;51.85;99371.88;7012360;28;20230;-83
2022/07/13 04:47:13;;;;;;;3.03;1.90;;;;;;;20.73;52.54;99364.41;7010587;28;20263;-82
2022/07/13 04:50:35;;;;;;;1.90;1.80;;;;;;;21.16;51.44;99377.25;7021584;28;20205;-82
2022/07/13 04:53:57;;;;;;;2.30;1.63;;;;;;;20.69;52.56;99376.16;7034187;28;20766;-82
2022/07/13 04:57:18;;;;;;;1.70;1.60;;;;;;;21.51;50.76;99359.19;7035642;28;20217;-85
2022/07/13 05:00:40;;;;;;;2.70;1.90;;;;;;;21.85;50.63;99380.66;7026418;28;20202;-80
2022/07/13 05:04:03;;;;;;;1.90;1.70;;;;;;;22.11;50.28;99392.59;7013110;28;20217;-82
2022/07/13 05:07:25;;;;;;;1.97;1.83;;;;;;;22.38;49.64;99387.84;7007932;28;20204;-81
2022/07/13 05:10:46;;;;;;;2.17;1.97;;;;;;;22.83;48.42;99383.38;7006375;28;20435;-81
2022/07/13 05:14:08;;;;;;;2.10;1.93;;;;;;;22.84;48.42;99374.03;7006307;28;20228;-81
2022/07/13 05:17:30;;;;;;;3.00;1.83;;;;;;;23.31;46.66;99388.47;7007001;28;20222;-81
2022/07/13 05:20:53;;;;;;;1.70;1.60;;;;;;;23.43;46.71;99385.47;7027530;28;20207;-81
2022/07/13 05:24:14;;;;;;;1.70;1.60;;;;;;;24.22;44.83;99381.88;7034623;28;20223;-80
2022/07/13 05:27:36;;;;;;;1.80;1.70;;;;;;;23.92;46.17;99368.16;7034355;28;20196;-80
2022/07/13 05:30:57;;;;;;;1.63;1.53;;;;;;;23.87;45.33;99386.56;7034956;28;20227;-81
2022/07/13 05:34:19;;;;;;;1.77;1.67;;;;;;;24.29;44.33;99365.84;7015543;28;20326;-80
2022/07/13 05:37:42;;;;;;;2.50;1.90;;;;;;;24.56;44.50;99399.41;7006180;28;20719;-81
2022/07/13 05:41:03;;;;;;;4.10;1.70;;;;;;;24.27;44.56;99390.13;7006522;28;20236;-80
2022/07/13 05:44:25;;;;;;;3.17;2.00;;;;;;;25.69;41.80;99383.63;7007274;28;20247;-81
2022/07/13 05:47:47;;;;;;;1.77;1.60;;;;;;;25.26;41.83;99379.78;7016063;28;20310;-80
2022/07/13 05:51:08;;;;;;;1.50;1.40;;;;;;;25.72;40.66;99378.34;7034923;28;20235;-80
2022/07/13 05:54:32;;;;;;;2.10;1.53;;;;;;;26.36;40.33;99375.28;7034121;28;20317;-81
2022/07/13 05:57:53;;;;;;;2.67;1.47;;;;;;;27.23;37.31;99347.88;7033255;28;20212;-81
2022/07/13 06:01:15;;;;;;;3.03;1.90;;;;;;;27.72;36.61;99364.00;7024048;28;20205;-81
2022/07/13 06:04:36;;;;;;;1.40;1.30;;;;;;;27.64;35.59;99376.59;7025862;28;20306;-81
2022/07/13 06:07:58;;;;;;;2.43;1.30;;;;;;;27.09;37.00;99374.66;7031258;28;20205;-81
2022/07/13 06:11:21;;;;;;;1.40;1.30;;;;;;;26.66;37.28;99312.13;7033592;28;20225;-81
2022/07/13 06:14:42;;;;;;;1.60;1.50;;;;;;;26.83;38.56;99372.53;7032939;28;20278;-80
2022/07/13 06:18:05;;;;;;;1.63;1.53;;;;;;;27.02;38.07;99357.56;7033299;28;20205;-81
2022/07/13 06:21:27;;;;;;;3.53;1.40;;;;;;;27.17;38.28;99349.06;7033612;28;20203;-81
2022/07/13 06:24:49;;;;;;;3.10;1.50;;;;;;;27.28;37.94;99349.72;7033576;28;20233;-80
2022/07/13 06:28:12;;;;;;;1.60;1.50;;;;;;;27.30;37.93;99362.16;7033717;28;20209;-81
2022/07/13 06:31:33;;;;;;;1.77;1.30;;;;;;;26.33;40.05;99362.84;7033677;28;20232;-81
2022/07/13 06:34:55;;;;;;;1.60;1.50;;;;;;;26.04;40.86;99362.06;7033713;28;20223;-85
2022/07/13 06:38:17;;;;;;;3.00;1.60;;;;;;;25.61;42.53;99368.47;7034004;28;20203;-81
2022/07/13 06:41:38;;;;;;;6.53;1.50;;;;;;;25.37;41.60;99370.34;7025865;28;20205;-82
2022/07/13 06:45:01;;;;;;;1.93;1.10;;;;;;;25.53;42.20;99352.53;7033275;28;20260;-81
2022/07/13 06:48:23;;;;;;;2.60;1.43;;;;;;;26.07;40.23;99349.59;7032430;28;20192;-82
2022/07/13 06:51:44;;;;;;;1.40;1.30;;;;;;;27.04;38.82;99352.56;7013251;28;20240;-81
2022/07/13 06:55:07;;;;;;;2.00;1.20;;;;;;;27.75;37.15;99360.59;7015763;28;20284;-81
2022/07/13 06:58:28;;;;;;;1.50;1.40;;;;;;;28.24;36.77;99364.44;7012686;28;20645;-81
2022/07/13 07:01:52;;;;;;;1.57;1.30;;;;;;;28.90;35.61;99353.66;7024702;28;20197;-81
2022/07/13 07:05:13;;;;;;;2.13;1.33;;;;;;;29.74;34.59;99352.84;7004655;28;20218;-81
2022/07/13 07:08:35;;;;;;;8.37;2.20;;;;;;;30.20;34.67;99366.41;7018937;28;20234;-81
2022/07/13 07:11:56;;;;;;;1.73;1.30;;;;;;;29.65;34.90;99362.25;7012463;28;20231;-81
2022/07/13 07:15:18;;;;;;;1.50;1.40;;;;;;;30.24;34.04;99367.44;7010569;28;20235;-81
2022/07/13 07:18:41;;;;;;;2.33;1.60;;;;;;;30.14;33.83;99351.81;7005883;28;20209;-80
2022/07/13 07:22:02;;;;;;;2.30;1.40;;;;;;;30.58;33.49;99348.06;7005306;28;20233;-81
2022/07/13 07:25:24;;;;;;;1.37;1.27;;;;;;;30.24;33.18;99345.19;7021991;28;20219;-80
2022/07/13 07:28:46;;;;;;;1.50;1.40;;;;;;;30.28;33.43;99343.38;7018265;28;20665;-81
2022/07/13 07:32:07;;;;;;;3.23;1.40;;;;;;;30.83;32.46;99348.19;7006238;28;20698;-80
2022/07/13 07:35:30;;;;;;;1.50;1.40;;;;;;;30.39;32.94;99341.94;7031433;28;20220;-80
2022/07/13 07:38:52;;;;;;;1.40;1.30;;;;;;;30.36;32.48;99335.06;7003326;28;20199;-80
2022/07/13 07:42:13;;;;;;;1.83;1.50;;;;;;;30.13;32.97;99343.81;7003907;28;20203;-80
2022/07/13 07:45:35;;;;;;;1.90;1.47;;;;;;;29.78;34.19;99358.59;7003391;28;20315;-80
2022/07/13 07:48:56;;;;;;;4.37;1.60;;;;;;;29.63;34.44;99337.56;7002885;28;20217;-81
2022/07/13 07:52:19;;;;;;;3.13;1.70;;;;;;;30.85;32.20;99339.50;7004955;28;20305;-79
2022/07/13 07:55:41;;;;;;;1.90;1.50;;;;;;;30.78;32.00;99341.97;7008766;28;20312;-81
2022/07/13 07:59:02;;;;;;;2.27;1.57;;;;;;;31.32;31.27;99345.00;7008642;28;20237;-80
2022/07/13 08:02:24;;;;;;;1.57;1.47;;;;;;;30.85;31.85;99322.81;7019958;28;20208;-80
2022/07/13 08:05:48;;;;;;;2.50;1.67;;;;;;;30.61;32.45;99339.09;7036953;28;20342;-80
2022/07/13 08:09:11;;;;;;;2.33;1.30;;;;;;;30.96;31.29;99327.72;7037363;28;20210;-81
2022/07/13 08:12:33;;;;;;;3.07;1.17;;;;;;;30.68;32.51;99322.75;7039986;28;20312;-80
2022/07/13 08:15:55;;;;;;;1.80;1.70;;;;;;;31.63;30.57;99342.88;7037657;28;20233;-80
2022/07/13 08:19:16;;;;;;;1.60;1.50;;;;;;;31.11;31.47;99332.84;7037629;28;20209;-80
2022/07/13 08:22:38;;;;;;;1.70;1.30;;;;;;;31.92;29.38;99329.09;7036410;28;20257;-80
2022/07/13 08:26:01;;;;;;;1.93;1.40;;;;;;;31.24;31.20;99339.44;7037092;28;20257;-80
2022/07/13 08:29:23;;;;;;;2.70;1.80;;;;;;;31.54;30.95;99322.53;7036475;28;20202;-80
2022/07/13 08:32:44;;;;;;;2.00;1.47;;;;;;;32.96;28.73;99322.75;7037064;28;20257;-82
2022/07/13 08:39:47;;;;;;;1.67;1.40;;;;;;;33.48;27.18;99312.84;7037899;28;20632;-80
2022/07/13 08:43:10;;;;;;;2.10;1.27;;;;;;;33.61;25.77;99289.34;7037437;28;20235;-81
2022/07/13 08:46:31;;;;;;;2.60;1.30;;;;;;;33.20;27.02;99311.72;7007343;28;20276;-79
2022/07/13 08:49:54;;;;;;;1.10;1.10;;;;;;;33.83;26.39;99303.00;7007424;28;20619;-79
2022/07/13 08:53:16;;;;;;;1.73;1.50;;;;;;;33.66;26.33;99280.75;7006899;28;20277;-79
2022/07/13 08:56:38;;;;;;;1.40;1.30;;;;;;;33.81;26.01;99310.91;7034271;28;20235;-79
2022/07/13 09:00:01;;;;;;;2.97;1.20;;;;;;;33.68;26.13;99306.41;7034768;28;20760;-80
2022/07/13 09:07:40;;;;;;;1.20;1.20;;;;;;;33.00;26.77;99318.13;7030671;28;20200;-78
2022/07/13 09:11:02;;;;;;;12.67;2.83;;;;;;;33.99;26.18;99282.38;7034160;28;20661;-80
2022/07/13 09:14:24;;;;;;;3.83;1.80;;;;;;;34.77;25.06;99297.88;7023277;28;20600;-81
2022/07/13 09:17:47;;;;;;;2.30;1.17;;;;;;;35.47;23.92;99299.25;7006206;28;20654;-79
2022/07/13 09:21:09;;;;;;;6.63;1.67;;;;;;;35.54;23.76;99313.50;7006637;28;20214;-80
2022/07/13 09:24:42;;;;;;;2.23;1.30;;;;;;;34.91;23.84;99298.31;7006325;28;20237;-79
2022/07/13 09:28:06;;;;;;;3.83;1.20;;;;;;;33.79;25.46;99296.44;7005794;28;20213;-79
2022/07/13 09:31:27;;;;;;;1.70;1.60;;;;;;;34.30;26.67;99299.47;7006245;28;20201;-79
2022/07/13 09:34:52;;;;;;;3.33;1.30;;;;;;;34.51;25.21;99244.19;7007554;28;20240;-79
2022/07/13 09:38:30;;;;;;;3.80;1.50;;;;;;;36.13;23.37;99308.78;7034333;28;20213;-81
2022/07/13 09:41:52;;;;;;;1.73;1.63;;;;;;;35.58;24.19;99287.19;7035389;28;20200;-81
2022/07/13 09:48:54;;;;;;;1.43;1.33;;;;;;;35.14;24.65;99295.84;7035284;28;20670;-80
2022/07/13 09:52:18;;;;;;;1.73;1.60;;;;;;;35.83;23.46;99299.94;7034222;28;20316;-80
2022/07/13 09:55:42;;;;;;;1.77;1.20;;;;;;;36.43;22.43;99273.50;7037495;28;20225;-81
2022/07/13 09:59:05;;;;;;;2.03;1.20;;;;;;;36.61;20.91;99300.03;7037191;28;20579;-81
2022/07/13 10:02:26;;;;;;;2.60;1.00;;;;;;;35.61;23.13;99291.25;7033694;28;20237;-81
2022/07/13 10:05:49;;;;;;;2.00;1.27;;;;;;;36.34;21.77;99289.69;7035641;28;20225;-80
2022/07/13 10:09:12;;;;;;;1.67;1.17;;;;;;;36.00;22.25;99299.63;7014926;28;20631;-80
2022/07/13 10:12:34;;;;;;;2.27;0.90;;;;;;;35.88;19.32;99296.06;7007940;28;20367;-81
2022/07/13 10:15:56;;;;;;;0.87;0.70;;;;;;;36.17;17.74;99296.50;7016866;28;20240;-81
2022/07/13 10:19:18;;;;;;;2.00;0.80;;;;;;;36.67;17.21;99305.03;7024837;28;20205;-80
2022/07/13 10:22:43;;;;;;;1.77;0.90;;;;;;;35.42;18.30;99275.09;7028310;28;20258;-80
2022/07/13 10:26:18;;;;;;;1.50;1.03;;;;;;;35.14;18.81;99291.03;7035450;28;20206;-82
2022/07/13 10:29:48;;;;;;;1.20;0.93;;;;;;;35.78;18.56;99283.34;7022196;28;20610;-80
2022/07/13 10:33:19;;;;;;;1.47;0.83;;;;;;;36.46;18.15;99279.19;7007280;28;20229;-80
2022/07/13 10:36:55;;;;;;;0.80;0.80;;;;;;;35.63;19.51;99256.06;7011901;28;20201;-80
2022/07/13 10:40:17;;;;;;;1.33;0.87;;;;;;;36.24;17.79;99276.19;7047026;28;20193;-78
2022/07/13 10:43:40;;;;;;;3.87;1.17;;;;;;;36.64;16.96;99285.25;7049742;28;20240;-81
2022/07/13 10:47:03;;;;;;;2.43;2.20;;;;;;;37.24;15.26;99274.25;7041280;28;20216;-81
2022/07/13 10:50:26;;;;;;;4.80;2.47;;;;;;;37.71;15.11;99280.50;7051240;28;20212;-81
2022/07/13 10:54:04;;;;;;;1.73;0.80;;;;;;;37.03;15.78;99265.31;7045863;28;20225;-81
2022/07/13 10:57:27;;;;;;;1.70;0.70;;;;;;;37.36;15.95;99250.75;7035760;28;20577;-81
2022/07/13 11:00:50;;;;;;;0.60;0.60;;;;;;;37.41;16.33;99234.41;7034938;28;20208;-80
2022/07/13 11:04:15;;;;;;;3.17;0.97;;;;;;;38.03;14.15;99261.41;7038334;28;20220;-81
2022/07/13 11:07:41;;;;;;;0.60;0.60;;;;;;;37.11;16.23;99224.94;7037589;28;20216;-81
2022/07/13 11:11:26;;;;;;;1.00;0.90;;;;;;;35.84;16.71;99253.84;7043857;28;20212;-80
2022/07/13 11:14:49;;;;;;;0.90;0.60;;;;;;;36.25;15.66;99242.13;7036971;28;20258;-81
2022/07/13 11:18:29;;;;;;;0.70;0.70;;;;;;;38.00;15.23;99237.63;7034209;28;20211;-80
2022/07/13 11:22:05;;;;;;;7.77;1.57;;;;;;;37.13;15.77;99230.22;7034648;28;20228;-81
2022/07/13 11:25:34;;;;;;;0.60;0.40;;;;;;;35.57;15.37;99218.22;7033136;28;20308;-81
2022/07/13 11:29:06;;;;;;;0.73;0.70;;;;;;;36.11;15.05;99210.88;7039569;28;20189;-80
2022/07/13 11:32:27;;;;;;;0.60;0.60;;;;;;;37.25;15.15;99230.06;7052710;28;20261;-80
2022/07/13 11:35:51;;;;;;;0.60;0.60;;;;;;;38.56;13.62;99210.41;7041688;28;20225;-81
2022/07/13 11:39:26;;;;;;;0.53;0.53;;;;;;;38.79;13.45;99201.88;7042404;28;20210;-81
2022/07/13 11:42:51;;;;;;;0.57;0.57;;;;;;;39.23;12.31;99223.47;7041808;28;20197;-80
2022/07/13 11:46:12;;;;;;;0.47;0.47;;;;;;;38.48;12.16;99211.50;7043818;28;20221;-81
2022/07/13 11:49:43;;;;;;;1.63;0.60;;;;;;;38.74;13.00;99202.22;7039854;28;20333;-80
2022/07/13 11:53:06;;;;;;;0.70;0.60;;;;;;;39.41;12.63;99213.25;7039748;28;20235;-80
2022/07/13 11:56:28;;;;;;;1.60;0.80;;;;;;;38.84;13.35;99143.13;7040000;28;20284;-80
2022/07/13 11:59:49;;;;;;;0.80;0.80;;;;;;;39.46;13.55;99207.25;7037934;28;20247;-80
2022/07/13 12:03:11;;;;;;;1.77;0.70;;;;;;;38.36;13.40;99203.22;7040022;28;20221;-80
2022/07/13 12:06:33;;;;;;;1.20;0.83;;;;;;;38.40;13.82;99192.00;7036073;28;20211;-81
2022/07/13 12:09:58;;;;;;;0.50;0.50;;;;;;;39.24;13.40;99177.13;7036805;28;20205;-80
2022/07/13 12:13:19;;;;;;;0.80;0.80;;;;;;;38.35;13.37;99187.50;7039142;28;20327;-80
2022/07/13 12:16:41;;;;;;;0.73;0.73;;;;;;;39.23;13.34;99178.31;7039511;28;20205;-81
2022/07/13 12:20:09;;;;;;;1.02;0.57;;;;;;;38.75;13.51;99176.47;7040046;28;20202;-80
2022/07/13 12:23:32;;;;;;;0.98;0.88;;;;;;;38.56;13.72;99179.38;7039951;28;20236;-81
2022/07/13 12:26:55;;;;;;;2.77;1.07;;;;;;;38.13;13.98;99139.66;7039545;28;20207;-81
2022/07/13 12:30:17;;;;;;;1.27;0.80;;;;;;;38.71;13.36;99155.84;7039470;28;20204;-81
2022/07/13 12:33:44;;;;;;;0.73;0.60;;;;;;;38.54;14.13;99156.41;7039683;28;20229;-81
2022/07/13 12:37:05;;;;;;;2.25;0.80;;;;;;;39.02;13.16;99149.06;7041144;28;20681;-81
2022/07/13 12:40:40;;;;;;;0.90;0.90;;;;;;;37.95;13.96;99139.34;7039065;28;20244;-81
2022/07/13 12:44:05;;;;;;;0.70;0.70;;;;;;;37.22;13.82;99152.84;7040612;28;20228;-80
2022/07/13 12:47:27;;;;;;;0.80;0.80;;;;;;;36.95;14.63;99133.38;7040406;28;20949;-80
2022/07/13 12:50:57;;;;;;;0.60;0.60;;;;;;;37.07;15.05;99159.34;7028333;28;20190;-80
2022/07/13 12:54:46;;;;;;;2.20;0.90;;;;;;;37.65;14.03;99132.78;7055119;28;20288;-80
2022/07/13 12:58:07;;;;;;;2.20;1.00;;;;;;;38.52;14.05;99138.25;7042889;28;20554;-80
2022/07/13 13:01:32;;;;;;;1.47;0.83;;;;;;;39.16;12.78;99127.47;7039936;28;20216;-81
2022/07/13 13:04:54;;;;;;;0.50;0.50;;;;;;;39.15;12.14;99136.31;7042831;28;20362;-81
2022/07/13 13:08:16;;;;;;;1.07;0.70;;;;;;;38.45;13.73;99139.00;7039231;28;20201;-81
2022/07/13 13:11:39;;;;;;;0.57;0.57;;;;;;;38.99;12.93;99121.59;7040012;28;20211;-81
2022/07/13 13:15:01;;;;;;;0.83;0.83;;;;;;;39.24;13.34;99119.88;7039177;28;20232;-80
2022/07/13 13:18:24;;;;;;;0.60;0.60;;;;;;;39.58;13.18;99139.22;7039260;28;20204;-81
2022/07/13 13:21:46;;;;;;;2.20;0.70;;;;;;;39.62;12.01;99111.03;7037625;28;20209;-81
2022/07/13 13:25:09;;;;;;;2.30;0.60;;;;;;;38.98;13.38;99120.81;7038994;28;20225;-81
2022/07/13 13:30:43;;;;;;;2.00;0.80;;;;;;;39.34;12.97;99117.22;7037281;28;20286;-81
2022/07/13 13:32:12;;;;;;;2.60;0.95;;;;;;;38.78;13.32;99093.13;7050350;28;20208;-81
2022/07/13 13:35:35;;;;;;;1.73;0.82;;;;;;;38.85;13.59;99116.59;7041940;28;20225;-81
2022/07/13 13:38:56;;;;;;;0.75;0.75;;;;;;;39.35;13.86;99118.00;7038561;28;20205;-81
2022/07/13 13:42:18;;;;;;;1.03;0.57;;;;;;;38.83;13.28;99107.69;7038329;28;20197;-81
2022/07/13 13:45:39;;;;;;;0.77;0.57;;;;;;;38.88;13.49;99110.19;7038461;28;20290;-81
2022/07/13 13:49:01;;;;;;;1.73;0.70;;;;;;;38.95;13.23;99081.28;7037900;28;20213;-81
2022/07/13 13:52:24;;;;;;;1.33;0.60;;;;;;;38.97;12.66;99107.88;7024472;28;20299;-80
2022/07/13 13:55:46;;;;;;;2.43;0.87;;;;;;;38.91;12.87;99092.47;7033811;28;20244;-81
2022/07/13 13:59:07;;;;;;;1.27;0.47;;;;;;;38.73;12.29;99097.06;7027673;28;20211;-81
2022/07/13 14:02:30;;;;;;;1.03;0.47;;;;;;;38.27;12.93;99081.53;7013543;28;20221;-80
2022/07/13 14:05:52;;;;;;;0.57;0.57;;;;;;;38.49;13.66;99072.19;7008833;28;20305;-81
2022/07/13 14:09:15;;;;;;;0.90;0.77;;;;;;;38.57;13.11;99087.19;7017239;28;20223;-81
2022/07/13 14:12:37;;;;;;;0.77;0.53;;;;;;;38.22;13.60;99081.03;7031257;28;20638;-81
2022/07/13 14:15:59;;;;;;;2.53;0.70;;;;;;;38.31;13.86;99082.38;7036970;28;20224;-81
2022/07/13 14:19:23;;;;;;;3.50;1.07;;;;;;;37.87;13.53;99063.56;7036228;28;20207;-81
2022/07/13 14:22:44;;;;;;;2.33;0.77;;;;;;;37.62;13.88;99046.28;7036103;28;20204;-81
2022/07/13 14:26:07;;;;;;;2.23;0.73;;;;;;;37.70;13.62;99090.25;7036317;28;20661;-80
2022/07/13 14:29:29;;;;;;;3.10;0.80;;;;;;;37.15;13.54;99085.22;7023961;28;20723;-79
2022/07/13 14:32:50;;;;;;;1.00;0.80;;;;;;;37.21;14.47;99064.03;7031662;28;20209;-79
2022/07/13 14:36:12;;;;;;;2.20;0.80;;;;;;;37.27;14.79;99053.28;7008567;28;20213;-79
2022/07/13 14:39:35;;;;;;;3.60;1.07;;;;;;;37.19;15.59;99071.22;7007960;28;20206;-80
2022/07/13 14:42:58;;;;;;;3.80;0.90;;;;;;;36.69;17.74;99038.47;7013605;28;20201;-79
2022/07/13 14:46:22;;;;;;;0.90;0.90;;;;;;;36.80;18.02;99062.00;7029662;28;20216;-79
2022/07/13 14:49:44;;;;;;;0.77;0.77;;;;;;;36.79;18.96;99042.69;7035313;28;20178;-79
2022/07/13 14:53:06;;;;;;;0.80;0.80;;;;;;;36.41;19.51;99037.03;7044146;28;20232;-78
2022/07/13 14:56:27;;;;;;;4.40;1.13;;;;;;;36.12;20.08;99057.22;7027982;28;20702;-79
2022/07/13 14:59:50;;;;;;;0.80;0.80;;;;;;;36.11;20.48;99044.34;7036421;28;20285;-79
2022/07/13 15:03:11;;;;;;;2.07;1.10;;;;;;;36.40;19.76;99064.31;7033358;28;20766;-79
2022/07/13 15:06:33;;;;;;;2.00;0.97;;;;;;;36.88;21.18;99058.13;7031760;28;20699;-79
2022/07/13 15:09:55;;;;;;;1.93;0.70;;;;;;;36.65;20.63;99064.88;7028494;28;20200;-79
2022/07/13 15:13:16;;;;;;;2.07;1.40;;;;;;;36.75;21.43;99065.09;7007546;28;20271;-77
2022/07/13 15:16:39;;;;;;;1.10;0.97;;;;;;;36.43;20.99;99069.19;7022811;28;20205;-80
2022/07/13 15:20:01;;;;;;;4.40;1.27;;;;;;;36.20;21.43;99043.00;7023194;28;20197;-79
2022/07/13 15:23:23;;;;;;;3.07;0.80;;;;;;;36.09;22.34;99058.78;7036064;28;20239;-79
2022/07/13 15:26:44;;;;;;;2.83;0.97;;;;;;;35.98;22.40;99054.91;7021770;28;20197;-79
2022/07/13 15:30:08;;;;;;;6.10;1.00;;;;;;;34.94;23.04;99055.75;7019074;28;20212;-79
2022/07/13 15:33:31;;;;;;;1.13;0.70;;;;;;;34.45;20.00;99048.72;7038391;28;20233;-79
2022/07/13 15:36:52;;;;;;;2.47;0.60;;;;;;;34.20;23.79;99039.53;7030425;28;20226;-79
2022/07/13 15:40:14;;;;;;;1.87;0.83;;;;;;;33.00;24.22;99038.66;7032349;28;20243;-78
2022/07/13 15:43:35;;;;;;;3.10;0.83;;;;;;;33.86;24.23;99042.06;7036550;28;20228;-80
2022/07/13 15:46:57;;;;;;;2.50;0.80;;;;;;;33.58;22.82;99027.94;7017513;28;20629;-81
2022/07/13 15:50:20;;;;;;;10.30;4.77;;;;;;;33.60;22.53;99045.19;7007659;28;20208;-80
2022/07/13 15:53:42;;;;;;;1.87;1.53;;;;;;;33.60;25.45;99028.41;7027611;28;20228;-81
2022/07/13 15:57:04;;;;;;;4.73;2.33;;;;;;;32.99;22.60;98997.94;7010029;28;20205;-81
2022/07/13 16:00:26;;;;;;;2.23;1.10;;;;;;;33.79;21.23;99009.06;7017783;28;20224;-80
2022/07/13 16:03:47;;;;;;;21.43;16.90;;;;;;;34.20;21.14;99024.72;7019916;28;20225;-78
2022/07/13 16:07:10;;;;;;;3.10;2.23;;;;;;;34.23;19.17;99047.22;7009078;28;20211;-80
2022/07/13 16:10:32;;;;;;;4.50;1.60;;;;;;;34.23;23.60;99024.84;7008472;28;20535;-79
2022/07/13 16:13:53;;;;;;;2.70;1.30;;;;;;;34.37;23.82;99030.09;7011711;28;20243;-81